Time;durP1;ratioP1;P1;durP2;ratioP2;P2;SDS_P1;SDS_P2;PMS_P1;PMS_P2;Temp;Humidity;BMP_temperature;BMP_pressure;BME280_temperature;BME280_humidity;BME280_pressure;Samples;Min_cycle;Max_cycle;Signal;HPM_P1;HPM_P2
2022/01/19 00:00:06;;;;;;;;;;;-2.90;91.40;;;;;;4960180;28;20350;-87
2022/01/19 00:02:32;;;;;;;;;;;-2.90;92.30;;;;;;4960139;28;20289;-87
2022/01/19 00:04:57;;;;;;;;;;;-2.90;92.80;;;;;;4960263;28;19911;-88
2022/01/19 00:07:23;;;;;;;;;;;-2.80;93.10;;;;;;4977855;28;20273;-88
2022/01/19 00:09:49;;;;;;;;;;;-2.80;93.40;;;;;;4960051;28;20345;-87
2022/01/19 00:12:14;;;;;;;;;;;-2.80;93.70;;;;;;4960028;28;19925;-87
2022/01/19 00:14:40;;;;;;;;;;;-2.90;94.40;;;;;;4960350;28;19910;-87
2022/01/19 00:17:07;;;;;;;;;;;-2.80;94.60;;;;;;4960237;28;20451;-87
2022/01/19 00:19:33;;;;;;;;;;;-2.80;94.00;;;;;;4960487;28;20388;-87
2022/01/19 00:21:58;;;;;;;;;;;-2.80;94.00;;;;;;4960201;28;19910;-87
2022/01/19 00:24:24;;;;;;;;;;;-2.90;93.90;;;;;;4959681;28;19910;-87
2022/01/19 00:26:49;;;;;;;;;;;-2.90;93.90;;;;;;4959807;28;19910;-87
2022/01/19 00:29:15;;;;;;;;;;;-2.90;93.80;;;;;;4976683;28;20013;-87
2022/01/19 00:31:40;;;;;;;;;;;-2.90;92.90;;;;;;4959651;28;19949;-87
2022/01/19 00:34:06;;;;;;;;;;;-2.90;91.50;;;;;;4959563;28;19914;-87
2022/01/19 00:36:32;;;;;;;;;;;-2.90;91.10;;;;;;4959295;28;19918;-87
2022/01/19 00:38:57;;;;;;;;;;;-2.90;88.60;;;;;;4959380;28;19942;-87
2022/01/19 00:41:23;;;;;;;;;;;-2.90;86.90;;;;;;4959245;28;19910;-87
2022/01/19 00:43:48;;;;;;;;;;;-2.90;87.70;;;;;;4959283;28;20270;-87
2022/01/19 00:46:14;;;;;;;;;;;-2.90;84.60;;;;;;4976473;28;19910;-87
2022/01/19 00:48:41;;;;;;;;;;;-3.00;84.20;;;;;;4959079;28;19910;-87
2022/01/19 00:51:07;;;;;;;;;;;-3.00;84.90;;;;;;4959023;28;20278;-87
2022/01/19 00:53:32;;;;;;;;;;;-3.10;83.40;;;;;;4959292;28;19910;-87
2022/01/19 00:55:58;;;;;;;;;;;-3.00;84.20;;;;;;4958788;28;20269;-88
2022/01/19 00:58:24;;;;;;;;;;;-3.10;84.50;;;;;;4958830;28;19920;-88
2022/01/19 01:00:50;;;;;;;;;;;-3.10;83.30;;;;;;4959370;28;19914;-88
2022/01/19 01:03:15;;;;;;;;;;;-3.00;83.60;;;;;;4958868;28;20278;-87
2022/01/19 01:05:41;;;;;;;;;;;-3.10;82.20;;;;;;4959117;28;20338;-87
2022/01/19 01:08:07;;;;;;;;;;;-3.10;82.20;;;;;;4959040;28;19964;-87
2022/01/19 01:10:41;;;;;;;;;;;-3.10;82.80;;;;;;4976239;28;19910;-87
2022/01/19 01:13:21;;;;;;;;;;;-3.10;82.60;;;;;;4959328;28;19914;-87
2022/01/19 01:15:48;;;;;;;;;;;-3.10;82.70;;;;;;4958742;28;19964;-87
2022/01/19 01:18:21;;;;;;;;;;;-3.10;82.50;;;;;;4958640;28;19910;-87
2022/01/19 01:20:50;;;;;;;;;;;-3.10;82.50;;;;;;4975946;28;20246;-87
2022/01/19 01:23:17;;;;;;;;;;;-3.10;83.20;;;;;;4958516;28;19930;-87
2022/01/19 01:25:43;;;;;;;;;;;-3.20;84.00;;;;;;4975705;28;20361;-87
2022/01/19 01:28:09;;;;;;;;;;;-3.10;84.30;;;;;;4958601;28;19996;-87
2022/01/19 01:30:35;;;;;;;;;;;-3.10;84.20;;;;;;4958594;28;19965;-87
2022/01/19 01:33:00;;;;;;;;;;;-3.10;84.50;;;;;;4976299;28;19910;-87
2022/01/19 01:35:26;;;;;;;;;;;-3.10;83.70;;;;;;4958225;28;19910;-87
2022/01/19 01:37:52;;;;;;;;;;;-3.10;83.90;;;;;;4958123;28;20021;-87
2022/01/19 01:40:17;;;;;;;;;;;-3.20;83.70;;;;;;4958622;28;20289;-87
2022/01/19 01:42:44;;;;;;;;;;;-3.20;85.20;;;;;;4958362;28;19910;-87
2022/01/19 01:45:13;;;;;;;;;;;-3.20;86.10;;;;;;4958691;28;19914;-87
2022/01/19 01:47:44;;;;;;;;;;;-3.20;86.00;;;;;;4958473;28;19910;-87
2022/01/19 01:55:21;;;;;;;;;;;-3.20;86.30;;;;;;4975424;28;19977;-87
2022/01/19 01:57:47;;;;;;;;;;;-3.20;86.00;;;;;;4958119;28;19918;-87
2022/01/19 02:00:15;;;;;;;;;;;-3.20;86.60;;;;;;4958211;28;19910;-87
2022/01/19 02:02:40;;;;;;;;;;;-3.10;87.00;;;;;;4958175;28;19917;-87
2022/01/19 02:05:09;;;;;;;;;;;-3.20;85.60;;;;;;4958131;28;19918;-87
2022/01/19 02:10:09;;;;;;;;;;;-3.20;86.40;;;;;;4975646;28;19957;-87
2022/01/19 02:23:38;;;;;;;;;;;-3.20;88.50;;;;;;4988968;28;19934;-87
2022/01/19 02:26:10;;;;;;;;;;;-3.20;90.40;;;;;;4971464;28;20265;-86
2022/01/19 02:42:27;;;;;;;;;;;-3.30;92.40;;;;;;4975177;28;19960;-87
2022/01/19 02:49:45;;;;;;;;;;;-3.30;93.00;;;;;;4978662;28;19965;-87
2022/01/19 02:52:11;;;;;;;;;;;-3.40;93.20;;;;;;4978515;28;19918;-87
2022/01/19 02:54:37;;;;;;;;;;;-3.30;93.30;;;;;;4978458;28;20022;-87
2022/01/19 02:57:03;;;;;;;;;;;-3.30;93.20;;;;;;4961233;28;20072;-87
2022/01/19 02:59:46;;;;;;;;;;;-3.40;92.80;;;;;;4961824;28;19992;-87
2022/01/19 03:10:24;;;;;;;;;;;-3.50;89.60;;;;;;4978738;28;19917;-87
2022/01/19 03:12:50;;;;;;;;;;;-3.60;89.30;;;;;;4960873;28;19997;-88
2022/01/19 03:15:15;;;;;;;;;;;-3.60;90.10;;;;;;4960906;28;19969;-87
2022/01/19 03:17:41;;;;;;;;;;;-3.60;90.20;;;;;;4977989;28;20354;-89
2022/01/19 03:20:08;;;;;;;;;;;-3.60;90.60;;;;;;4960968;28;19910;-87
2022/01/19 03:22:40;;;;;;;;;;;-3.60;90.70;;;;;;4978263;28;19917;-87
2022/01/19 03:25:12;;;;;;;;;;;-3.60;90.80;;;;;;4961361;28;19937;-87
2022/01/19 03:27:39;;;;;;;;;;;-3.60;91.10;;;;;;4960600;28;19914;-87
2022/01/19 03:30:06;;;;;;;;;;;-3.70;91.60;;;;;;4977780;28;20281;-87
2022/01/19 03:32:31;;;;;;;;;;;-3.70;91.90;;;;;;4977762;28;20362;-87
2022/01/19 03:34:57;;;;;;;;;;;-3.70;91.90;;;;;;4960595;28;19910;-87
2022/01/19 03:37:22;;;;;;;;;;;-3.60;91.70;;;;;;4977829;28;19918;-87
2022/01/19 03:39:48;;;;;;;;;;;-3.70;91.10;;;;;;4960834;28;19957;-87
2022/01/19 03:42:13;;;;;;;;;;;-3.70;90.30;;;;;;4960642;28;19933;-87
2022/01/19 03:44:39;;;;;;;;;;;-3.70;89.10;;;;;;4960236;28;20408;-87
2022/01/19 03:47:06;;;;;;;;;;;-3.80;88.70;;;;;;4976465;28;19911;-87
2022/01/19 03:49:33;;;;;;;;;;;-3.80;88.70;;;;;;4960316;28;20381;-87
2022/01/19 03:52:02;;;;;;;;;;;-3.80;89.20;;;;;;4960328;28;19910;-87
2022/01/19 03:54:28;;;;;;;;;;;-3.90;89.50;;;;;;4960316;28;19910;-87
2022/01/19 03:56:54;;;;;;;;;;;-3.90;90.00;;;;;;4960128;28;19922;-88
2022/01/19 03:59:20;;;;;;;;;;;-3.90;90.00;;;;;;4959520;28;19950;-87
2022/01/19 04:01:45;;;;;;;;;;;-3.90;90.20;;;;;;4960267;28;19964;-88
2022/01/19 04:06:59;;;;;;;;;;;-4.00;89.80;;;;;;4977527;28;19957;-87
2022/01/19 04:09:26;;;;;;;;;;;-4.00;90.30;;;;;;4960097;28;19953;-87
2022/01/19 04:11:52;;;;;;;;;;;-4.00;90.00;;;;;;4959978;28;19910;-88
2022/01/19 04:14:27;;;;;;;;;;;-4.00;89.90;;;;;;4959642;28;19914;-87
2022/01/19 04:16:57;;;;;;;;;;;-4.00;90.20;;;;;;4960189;28;19942;-87
2022/01/19 04:21:50;;;;;;;;;;;-4.00;90.50;;;;;;4977123;28;19938;-87
2022/01/19 04:24:16;;;;;;;;;;;-4.00;90.80;;;;;;4959806;28;19977;-87
2022/01/19 04:26:41;;;;;;;;;;;-4.00;90.90;;;;;;4959209;28;19910;-87
2022/01/19 04:29:07;;;;;;;;;;;-4.10;90.60;;;;;;4977448;28;19957;-87
2022/01/19 04:31:33;;;;;;;;;;;-4.10;90.80;;;;;;4959574;28;20358;-87
2022/01/19 04:33:59;;;;;;;;;;;-4.20;90.60;;;;;;4959577;28;19918;-87
2022/01/19 05:07:18;;;;;;;;;;;-4.30;92.20;;;;;;4976573;28;19911;-87
2022/01/19 05:15:01;;;;;;;;;;;-4.30;91.90;;;;;;4976465;28;19937;-87
2022/01/19 05:17:27;;;;;;;;;;;-4.30;91.90;;;;;;4958378;28;19930;-87
2022/01/19 05:19:52;;;;;;;;;;;-4.40;92.10;;;;;;4958783;28;19910;-87
2022/01/19 05:22:18;;;;;;;;;;;-4.50;92.40;;;;;;4958364;28;19910;-87
2022/01/19 05:24:45;;;;;;;;;;;-4.50;92.60;;;;;;4976094;28;19910;-87
2022/01/19 05:27:11;;;;;;;;;;;-4.60;92.90;;;;;;4958446;28;19914;-87
2022/01/19 05:29:36;;;;;;;;;;;-4.70;93.10;;;;;;4958467;28;19937;-87
2022/01/19 05:32:02;;;;;;;;;;;-4.70;93.40;;;;;;4958491;28;19916;-87
2022/01/19 05:34:28;;;;;;;;;;;-4.70;93.50;;;;;;4958863;28;19911;-86
2022/01/19 05:36:53;;;;;;;;;;;-4.80;93.80;;;;;;4975841;28;20445;-87
2022/01/19 05:39:19;;;;;;;;;;;-4.80;94.00;;;;;;4959168;28;19915;-87
2022/01/19 05:41:45;;;;;;;;;;;-4.80;94.30;;;;;;4958259;28;19997;-87
2022/01/19 05:44:10;;;;;;;;;;;-4.90;94.50;;;;;;4958410;28;19914;-87
2022/01/19 05:46:36;;;;;;;;;;;-4.90;94.80;;;;;;4975764;28;19914;-87
2022/01/19 05:49:02;;;;;;;;;;;-4.90;94.40;;;;;;4957930;28;19982;-88
2022/01/19 05:51:27;;;;;;;;;;;-4.90;94.50;;;;;;4958049;28;19953;-88
2022/01/19 05:53:53;;;;;;;;;;;-4.90;94.70;;;;;;4958195;28;19937;-88
2022/01/19 05:56:18;;;;;;;;;;;-5.00;94.80;;;;;;4957605;28;19973;-88
2022/01/19 05:58:44;;;;;;;;;;;-5.00;94.80;;;;;;4957917;28;19910;-88
2022/01/19 06:01:09;;;;;;;;;;;-5.00;95.00;;;;;;4958928;28;19914;-88
2022/01/19 06:03:35;;;;;;;;;;;-5.00;95.20;;;;;;4958372;28;19911;-87
2022/01/19 06:06:01;;;;;;;;;;;-5.10;95.30;;;;;;4957950;28;19910;-88
2022/01/19 06:10:55;;;;;;;;;;;-4.90;95.20;;;;;;4975014;28;19911;-88
2022/01/19 06:13:21;;;;;;;;;;;-4.90;95.10;;;;;;4973510;28;20225;-88
2022/01/19 06:15:47;;;;;;;;;;;-4.90;95.10;;;;;;4991713;28;19914;-88
2022/01/19 06:18:13;;;;;;;;;;;-4.80;95.00;;;;;;4977023;28;19936;-88
2022/01/19 06:20:39;;;;;;;;;;;-4.70;94.40;;;;;;4977398;28;20325;-89
2022/01/19 06:23:05;;;;;;;;;;;-4.70;94.20;;;;;;4998266;28;19929;-88
2022/01/19 06:25:30;;;;;;;;;;;-4.60;94.30;;;;;;4980580;28;19916;-88
2022/01/19 06:27:56;;;;;;;;;;;-4.60;94.50;;;;;;4980845;28;19960;-87
2022/01/19 06:30:22;;;;;;;;;;;-4.60;94.30;;;;;;4980606;28;19953;-88
2022/01/19 06:32:48;;;;;;;;;;;-4.50;93.70;;;;;;4980748;28;19922;-88
2022/01/19 06:35:14;;;;;;;;;;;-4.40;93.70;;;;;;4981039;28;19909;-87
2022/01/19 06:37:39;;;;;;;;;;;-4.40;93.40;;;;;;4985203;28;19925;-88
2022/01/19 06:40:06;;;;;;;;;;;-4.40;93.10;;;;;;5002408;28;20011;-87
2022/01/19 06:42:32;;;;;;;;;;;-4.40;93.00;;;;;;5002966;28;19909;-87
2022/01/19 06:44:57;;;;;;;;;;;-4.30;93.00;;;;;;5002428;28;19916;-87
2022/01/19 06:47:24;;;;;;;;;;;-4.30;92.80;;;;;;4985543;28;19910;-88
2022/01/19 06:49:50;;;;;;;;;;;-4.20;93.00;;;;;;4980449;28;19913;-88
2022/01/19 06:52:15;;;;;;;;;;;-4.20;92.50;;;;;;4964219;28;19918;-88
2022/01/19 06:54:41;;;;;;;;;;;-4.00;92.60;;;;;;4980368;28;19910;-87
2022/01/19 06:57:07;;;;;;;;;;;-4.00;92.20;;;;;;4977174;28;19922;-88
2022/01/19 06:59:33;;;;;;;;;;;-3.90;91.60;;;;;;4976996;28;19953;-88
2022/01/19 07:01:58;;;;;;;;;;;-3.80;91.20;;;;;;4978317;28;19918;-88
2022/01/19 07:04:24;;;;;;;;;;;-3.70;92.00;;;;;;4977317;28;19910;-89
2022/01/19 07:06:49;;;;;;;;;;;-3.70;91.00;;;;;;4976769;28;19936;-88
2022/01/19 07:09:15;;;;;;;;;;;-3.50;91.00;;;;;;4965479;28;19914;-88
2022/01/19 07:11:41;;;;;;;;;;;-3.40;90.20;;;;;;4976940;28;20258;-89
2022/01/19 07:14:08;;;;;;;;;;;-3.40;89.20;;;;;;4976492;28;19942;-89
2022/01/19 07:16:34;;;;;;;;;;;-3.40;88.90;;;;;;4977484;28;20361;-88
2022/01/19 07:19:00;;;;;;;;;;;-3.30;88.00;;;;;;4975881;28;19922;-88
2022/01/19 07:21:28;;;;;;;;;;;-3.30;88.00;;;;;;4976175;28;19910;-88
2022/01/19 07:23:53;;;;;;;;;;;-3.20;87.50;;;;;;4959509;28;19917;-88
2022/01/19 07:26:19;;;;;;;;;;;-3.10;88.30;;;;;;4992331;28;19914;-88
2022/01/19 07:28:47;;;;;;;;;;;-3.10;89.20;;;;;;4975878;28;20015;-88
2022/01/19 07:31:15;;;;;;;;;;;-3.00;87.10;;;;;;4977548;28;19949;-86
2022/01/19 07:33:40;;;;;;;;;;;-2.90;86.60;;;;;;4958323;28;19975;-88
2022/01/19 07:36:06;;;;;;;;;;;-2.80;86.80;;;;;;4976894;28;19914;-88
2022/01/19 07:38:32;;;;;;;;;;;-2.80;85.30;;;;;;4975721;28;20009;-88
2022/01/19 07:40:57;;;;;;;;;;;-2.70;86.20;;;;;;4975880;28;19910;-88
2022/01/19 07:43:23;;;;;;;;;;;-2.70;84.20;;;;;;4976276;28;19910;-88
2022/01/19 07:45:49;;;;;;;;;;;-2.70;83.70;;;;;;4975923;28;20012;-88
2022/01/19 07:48:17;;;;;;;;;;;-2.70;83.80;;;;;;4959602;28;19933;-88
2022/01/19 07:50:42;;;;;;;;;;;-2.70;82.70;;;;;;4959290;28;20366;-89
2022/01/19 07:53:08;;;;;;;;;;;-2.70;83.50;;;;;;4975708;28;19910;-89
2022/01/19 07:55:34;;;;;;;;;;;-2.70;83.40;;;;;;4975100;28;19922;-88
2022/01/19 07:58:09;;;;;;;;;;;;;;;;;;;;;
2022/01/19 08:00:38;;;;;;;;;;;-2.60;84.30;;;;;;4975666;28;19921;-89
2022/01/19 08:03:06;;;;;;;;;;;-2.50;83.70;;;;;;4975355;28;20004;-90
2022/01/19 08:05:34;;;;;;;;;;;-2.40;83.60;;;;;;4975500;28;19914;-88
2022/01/19 08:08:02;;;;;;;;;;;-2.20;82.90;;;;;;4976687;28;19911;-88
2022/01/19 08:10:29;;;;;;;;;;;-2.10;82.10;;;;;;4975394;28;20329;-88
2022/01/19 08:12:55;;;;;;;;;;;-2.00;80.70;;;;;;4976643;28;19910;-88
2022/01/19 08:15:21;;;;;;;;;;;-1.90;81.30;;;;;;4975236;28;20231;-88
2022/01/19 08:17:46;;;;;;;;;;;-1.90;80.30;;;;;;4975235;28;19922;-88
2022/01/19 08:20:12;;;;;;;;;;;-1.90;79.10;;;;;;4961660;28;19910;-89
2022/01/19 08:22:38;;;;;;;;;;;-1.90;80.10;;;;;;4976564;28;19952;-89
2022/01/19 08:25:04;;;;;;;;;;;-1.90;79.20;;;;;;4976646;28;19997;-88
2022/01/19 08:27:29;;;;;;;;;;;-1.80;79.60;;;;;;4975464;28;19914;-89
2022/01/19 08:29:55;;;;;;;;;;;-1.80;78.70;;;;;;4959038;28;20263;-89
2022/01/19 08:32:21;;;;;;;;;;;-1.70;78.50;;;;;;4979441;28;19970;-87
2022/01/19 08:34:46;;;;;;;;;;;-1.60;77.50;;;;;;4986212;28;20006;-88
2022/01/19 08:37:15;;;;;;;;;;;-1.60;77.20;;;;;;4987381;28;19925;-87
2022/01/19 08:39:41;;;;;;;;;;;-1.50;79.70;;;;;;4983491;28;19914;-87
2022/01/19 08:42:07;;;;;;;;;;;-1.50;78.40;;;;;;4977138;28;19914;-88
2022/01/19 08:44:32;;;;;;;;;;;-1.40;77.50;;;;;;4974807;28;19917;-90
2022/01/19 08:46:58;;;;;;;;;;;-1.40;75.80;;;;;;4976255;28;19957;-88
2022/01/19 08:49:23;;;;;;;;;;;-1.30;76.80;;;;;;4976688;28;19914;-88
2022/01/19 08:51:49;;;;;;;;;;;-1.40;75.00;;;;;;4958523;28;19910;-88
2022/01/19 08:54:14;;;;;;;;;;;-1.40;75.20;;;;;;4975063;28;19916;-88
2022/01/19 08:56:40;;;;;;;;;;;-1.50;75.20;;;;;;4974165;28;19969;-88
2022/01/19 08:59:06;;;;;;;;;;;-1.40;76.00;;;;;;4973732;28;19914;-88
2022/01/19 09:01:31;;;;;;;;;;;-1.40;75.10;;;;;;4974579;28;20006;-88
2022/01/19 09:03:57;;;;;;;;;;;-1.40;74.30;;;;;;4957730;28;19914;-89
2022/01/19 09:06:23;;;;;;;;;;;-1.40;75.30;;;;;;4974179;28;19910;-89
2022/01/19 09:08:48;;;;;;;;;;;-1.40;76.30;;;;;;4974328;28;20341;-88
2022/01/19 09:11:14;;;;;;;;;;;-1.30;76.20;;;;;;4974481;28;19910;-89
2022/01/19 09:13:45;;;;;;;;;;;-1.20;77.70;;;;;;4973569;28;20424;-89
2022/01/19 09:16:12;;;;;;;;;;;-1.10;77.40;;;;;;4973229;28;19918;-91
2022/01/19 09:18:40;;;;;;;;;;;-0.90;78.90;;;;;;4968737;28;20372;-90
2022/01/19 09:21:05;;;;;;;;;;;-0.70;77.20;;;;;;4963773;28;20303;-90
2022/01/19 09:23:35;;;;;;;;;;;-0.70;74.00;;;;;;4973142;28;19918;-90
2022/01/19 09:26:19;;;;;;;;;;;-0.70;73.80;;;;;;4969753;28;19970;-89
2022/01/19 09:28:54;;;;;;;;;;;-0.80;74.00;;;;;;4957149;28;19918;-90
2022/01/19 09:31:38;;;;;;;;;;;-0.80;74.90;;;;;;4955389;29;19982;-89
2022/01/19 09:34:19;;;;;;;;;;;-0.80;76.10;;;;;;4971108;28;19910;-88
2022/01/19 09:37:07;;;;;;;;;;;-0.80;75.00;;;;;;4939765;29;20021;-89
2022/01/19 09:39:35;;;;;;;;;;;-0.80;74.20;;;;;;4954606;29;19911;-89
2022/01/19 09:42:13;;;;;;;;;;;-0.70;75.20;;;;;;4952016;28;19911;-90
2022/01/19 09:44:45;;;;;;;;;;;-0.80;74.00;;;;;;4949775;29;19910;-90
2022/01/19 09:47:48;;;;;;;;;;;-0.80;74.80;;;;;;4955415;28;19910;-90
2022/01/19 09:50:31;;;;;;;;;;;-0.70;73.60;;;;;;4954512;29;19961;-89
2022/01/19 09:53:00;;;;;;;;;;;-0.70;74.30;;;;;;4973373;28;19910;-89
2022/01/19 09:55:59;;;;;;;;;;;-0.60;73.40;;;;;;4980069;28;20323;-89
2022/01/19 09:58:32;;;;;;;;;;;-0.50;74.60;;;;;;4994407;28;19921;-89
2022/01/19 10:01:20;;;;;;;;;;;-0.50;73.70;;;;;;4993475;28;19992;-89
2022/01/19 10:03:48;;;;;;;;;;;-0.50;75.10;;;;;;4977364;28;20211;-89
2022/01/19 10:06:15;;;;;;;;;;;-0.40;73.60;;;;;;4961720;28;19921;-88
2022/01/19 10:08:48;;;;;;;;;;;-0.40;72.70;;;;;;4976780;28;19989;-88
2022/01/19 10:17:03;;;;;;;;;;;-0.20;72.90;;;;;;4895998;29;19956;-89
2022/01/19 10:19:30;;;;;;;;;;;-0.30;70.30;;;;;;4947134;28;19911;-89
2022/01/19 10:22:16;;;;;;;;;;;-0.50;70.40;;;;;;4976850;28;19957;-90
2022/01/19 10:24:47;;;;;;;;;;;-0.50;71.40;;;;;;4976729;28;19914;-91
2022/01/19 10:27:32;;;;;;;;;;;-0.50;72.80;;;;;;4977440;28;19918;-91
2022/01/19 10:30:36;;;;;;;;;;;-0.30;73.50;;;;;;4982663;28;19918;-93
2022/01/19 10:33:20;;;;;;;;;;;-0.30;69.70;;;;;;4991215;28;20349;-92
2022/01/19 10:35:50;;;;;;;;;;;-0.30;71.10;;;;;;4994772;28;19910;-90
2022/01/19 10:38:28;;;;;;;;;;;-0.30;69.80;;;;;;4977406;28;19922;-92
2022/01/19 10:41:03;;;;;;;;;;;-0.30;70.00;;;;;;4978161;28;19917;-92
2022/01/19 10:43:53;;;;;;;;;;;-0.30;69.70;;;;;;4978081;28;20001;-92
2022/01/19 10:46:53;;;;;;;;;;;-0.20;71.30;;;;;;4971105;28;20361;-92
2022/01/19 10:49:54;;;;;;;;;;;-0.20;69.40;;;;;;4968733;28;19943;-95
2022/01/19 10:52:40;;;;;;;;;;;;;;;;;;;;;
2022/01/19 10:55:13;;;;;;;;;;;-0.20;67.90;;;;;;4991566;28;19910;-93
2022/01/19 10:58:19;;;;;;;;;;;-0.20;68.30;;;;;;4977664;28;19924;-92
2022/01/19 11:01:15;;;;;;;;;;;-0.20;67.70;;;;;;4994866;28;20352;-90
2022/01/19 11:03:51;;;;;;;;;;;-0.10;67.80;;;;;;4972428;28;19953;-91
2022/01/19 11:09:23;;;;;;;;;;;0.00;65.00;;;;;;4948550;28;20357;-92
2022/01/19 11:11:55;;;;;;;;;;;0.00;65.70;;;;;;4981254;28;19910;-91
2022/01/19 11:14:31;;;;;;;;;;;0.00;65.70;;;;;;4980899;28;19940;-92
2022/01/19 11:17:00;;;;;;;;;;;0.00;65.70;;;;;;4966132;28;19926;-92
2022/01/19 11:19:49;;;;;;;;;;;0.00;66.70;;;;;;4962342;28;19976;-92
2022/01/19 11:22:36;;;;;;;;;;;0.00;67.20;;;;;;4977369;28;19910;-92
2022/01/19 11:25:45;;;;;;;;;;;0.10;65.40;;;;;;4994754;28;20372;-90
2022/01/19 11:28:22;;;;;;;;;;;0.10;66.70;;;;;;4994419;28;19918;-89
2022/01/19 11:30:50;;;;;;;;;;;0.10;64.50;;;;;;4972364;28;19941;-89
2022/01/19 11:33:33;;;;;;;;;;;0.00;64.80;;;;;;4975766;28;20063;-90
2022/01/19 11:36:03;;;;;;;;;;;-0.10;63.50;;;;;;4980210;28;20373;-93
2022/01/19 11:42:38;;;;;;;;;;;-0.10;66.10;;;;;;4928770;29;19914;-92
2022/01/19 11:45:31;;;;;;;;;;;-0.10;65.10;;;;;;4895158;29;19915;-89
2022/01/19 11:48:21;;;;;;;;;;;0.00;65.40;;;;;;4878115;29;19924;-88
2022/01/19 11:51:21;;;;;;;;;;;0.00;64.90;;;;;;4892784;29;20023;-90
2022/01/19 11:54:14;;;;;;;;;;;-0.10;64.70;;;;;;4891067;29;19912;-91
2022/01/19 11:57:02;;;;;;;;;;;-0.10;65.00;;;;;;4898368;29;20389;-89
2022/01/19 11:59:52;;;;;;;;;;;0.00;65.40;;;;;;4872793;29;19926;-89
2022/01/19 12:02:36;;;;;;;;;;;0.00;65.00;;;;;;4882711;29;19954;-91
2022/01/19 12:05:13;;;;;;;;;;;0.00;64.90;;;;;;4883330;29;19961;-91
2022/01/19 12:07:59;;;;;;;;;;;0.10;64.80;;;;;;4880871;29;19919;-90
2022/01/19 12:10:45;;;;;;;;;;;0.00;63.40;;;;;;4881872;29;20016;-91
2022/01/19 12:13:35;;;;;;;;;;;0.00;65.40;;;;;;4881959;29;19922;-89
2022/01/19 12:16:05;;;;;;;;;;;0.00;65.10;;;;;;4881276;29;19975;-89
2022/01/19 12:18:56;;;;;;;;;;;0.00;65.20;;;;;;4889686;29;19916;-91
2022/01/19 12:21:37;;;;;;;;;;;0.00;64.60;;;;;;4886318;29;19912;-91
2022/01/19 12:27:09;;;;;;;;;;;0.00;64.60;;;;;;4891126;29;19923;-90
2022/01/19 12:29:54;;;;;;;;;;;0.10;64.10;;;;;;4886146;29;19911;-92
2022/01/19 12:33:02;;;;;;;;;;;0.00;64.60;;;;;;4895750;29;19935;-92
2022/01/19 12:35:34;;;;;;;;;;;0.00;64.30;;;;;;4887826;29;19962;-91
2022/01/19 12:38:12;;;;;;;;;;;0.00;64.00;;;;;;4892731;29;20320;-87
2022/01/19 12:40:44;;;;;;;;;;;0.00;65.70;;;;;;4877652;29;20030;-88
2022/01/19 12:43:27;;;;;;;;;;;0.10;65.40;;;;;;4873407;29;19951;-88
2022/01/19 12:45:53;;;;;;;;;;;0.00;64.90;;;;;;4894925;29;20343;-89
2022/01/19 12:48:32;;;;;;;;;;;0.00;64.00;;;;;;4870505;29;19944;-89
2022/01/19 12:51:01;;;;;;;;;;;0.00;65.00;;;;;;4876563;29;19919;-88
2022/01/19 12:53:26;;;;;;;;;;;0.00;65.50;;;;;;4875803;29;20395;-88
2022/01/19 12:56:01;;;;;;;;;;;0.00;65.20;;;;;;4894342;29;21618;-88
2022/01/19 12:58:37;;;;;;;;;;;0.00;64.40;;;;;;4896976;29;20174;-90
2022/01/19 13:01:06;;;;;;;;;;;0.00;64.50;;;;;;4877532;29;20014;-89
2022/01/19 13:03:34;;;;;;;;;;;0.00;64.80;;;;;;4887154;29;19986;-91
2022/01/19 13:06:03;;;;;;;;;;;0.00;63.80;;;;;;4888539;29;19946;-89
2022/01/19 13:08:36;;;;;;;;;;;0.00;63.80;;;;;;4865012;29;19912;-89
2022/01/19 13:11:29;;;;;;;;;;;0.00;64.80;;;;;;4878538;29;19911;-88
2022/01/19 13:13:58;;;;;;;;;;;0.00;64.70;;;;;;4873805;29;19916;-89
2022/01/19 13:16:25;;;;;;;;;;;0.00;65.40;;;;;;4880080;29;19945;-90
2022/01/19 13:18:52;;;;;;;;;;;0.00;63.50;;;;;;4866544;29;19940;-90
2022/01/19 13:21:21;;;;;;;;;;;0.00;63.30;;;;;;4881056;29;19967;-90
2022/01/19 13:24:20;;;;;;;;;;;-0.10;63.70;;;;;;4868736;29;20298;-90
2022/01/19 13:26:52;;;;;;;;;;;-0.10;64.50;;;;;;4875659;29;20024;-92
2022/01/19 13:29:25;;;;;;;;;;;-0.10;63.50;;;;;;4878129;29;20929;-91
2022/01/19 13:32:23;;;;;;;;;;;0.00;63.80;;;;;;4879941;29;19912;-91
2022/01/19 13:35:01;;;;;;;;;;;0.00;64.10;;;;;;4834180;29;19916;-92
2022/01/19 13:37:56;;;;;;;;;;;0.00;64.10;;;;;;4881886;29;19953;-92
2022/01/19 13:40:26;;;;;;;;;;;0.00;64.10;;;;;;4896842;29;20002;-90
2022/01/19 13:43:18;;;;;;;;;;;0.00;63.20;;;;;;4881750;29;19975;-93
2022/01/19 13:45:50;;;;;;;;;;;0.00;63.90;;;;;;4881961;29;20319;-91
2022/01/19 13:50:57;;;;;;;;;;;0.10;64.30;;;;;;4894725;29;19966;-92
2022/01/19 13:53:50;;;;;;;;;;;0.00;62.80;;;;;;4881626;29;19916;-90
2022/01/19 13:56:17;;;;;;;;;;;0.00;64.40;;;;;;4879087;29;20350;-91
2022/01/19 13:58:49;;;;;;;;;;;0.00;65.10;;;;;;4879410;29;20479;-91
2022/01/19 14:01:22;;;;;;;;;;;0.00;65.60;;;;;;4890236;29;19941;-92
2022/01/19 14:03:51;;;;;;;;;;;0.10;66.50;;;;;;4895571;29;19918;-90
2022/01/19 14:06:31;;;;;;;;;;;0.10;66.50;;;;;;4864816;29;19919;-90
2022/01/19 14:09:17;;;;;;;;;;;0.20;65.50;;;;;;4881575;29;20315;-92
2022/01/19 14:12:02;;;;;;;;;;;0.10;64.30;;;;;;4927741;29;19917;-91
2022/01/19 14:14:33;;;;;;;;;;;0.10;66.00;;;;;;4945121;29;20482;-93
2022/01/19 14:17:28;;;;;;;;;;;0.00;65.50;;;;;;4930846;29;20382;-88
2022/01/19 14:19:54;;;;;;;;;;;0.00;65.10;;;;;;4949195;29;19911;-89
2022/01/19 14:22:24;;;;;;;;;;;-0.10;66.40;;;;;;4947232;29;19989;-88
2022/01/19 14:24:55;;;;;;;;;;;-0.20;66.30;;;;;;4929162;29;19965;-89
2022/01/19 14:27:32;;;;;;;;;;;-0.20;67.60;;;;;;4925452;29;19961;-90
2022/01/19 14:30:28;;;;;;;;;;;-0.30;67.40;;;;;;4952979;29;19914;-90
2022/01/19 14:33:09;;;;;;;;;;;-0.40;66.00;;;;;;4946010;29;19911;-90
2022/01/19 14:35:42;;;;;;;;;;;-0.40;67.70;;;;;;4953681;29;20009;-89
2022/01/19 14:38:24;;;;;;;;;;;-0.50;67.50;;;;;;4943958;29;19940;-88
2022/01/19 14:41:07;;;;;;;;;;;-0.50;69.10;;;;;;4939469;29;19925;-89
2022/01/19 14:43:42;;;;;;;;;;;-0.60;69.10;;;;;;4937278;29;19935;-89
2022/01/19 14:46:12;;;;;;;;;;;-0.60;68.70;;;;;;4954452;29;19942;-90
2022/01/19 14:48:40;;;;;;;;;;;-0.60;68.80;;;;;;4961217;29;19934;-89
2022/01/19 14:51:40;;;;;;;;;;;-0.70;69.50;;;;;;4949180;29;19922;-88
2022/01/19 14:54:11;;;;;;;;;;;-0.70;69.40;;;;;;4923203;29;19923;-90
2022/01/19 14:56:40;;;;;;;;;;;-0.80;69.50;;;;;;4969669;28;20381;-89
2022/01/19 14:59:17;;;;;;;;;;;-0.80;69.60;;;;;;4975364;28;19911;-90
2022/01/19 15:01:47;;;;;;;;;;;-0.90;69.90;;;;;;4993380;28;19914;-90
2022/01/19 15:04:19;;;;;;;;;;;-0.90;70.00;;;;;;4972038;28;19914;-90
2022/01/19 15:07:00;;;;;;;;;;;-0.90;70.30;;;;;;4994922;28;19960;-90
2022/01/19 15:09:27;;;;;;;;;;;-1.00;70.60;;;;;;4983435;28;19970;-89
2022/01/19 15:12:09;;;;;;;;;;;-1.00;70.80;;;;;;5011877;28;19986;-91
2022/01/19 15:14:42;;;;;;;;;;;-1.00;70.80;;;;;;4991679;28;19924;-92
2022/01/19 15:17:10;;;;;;;;;;;-1.10;71.00;;;;;;4973217;28;19922;-90
2022/01/19 15:19:38;;;;;;;;;;;-1.10;71.40;;;;;;4983570;28;20350;-91
2022/01/19 15:22:07;;;;;;;;;;;-1.10;71.80;;;;;;4979327;28;19917;-90
2022/01/19 15:24:35;;;;;;;;;;;-1.20;72.00;;;;;;4961379;28;19990;-89
2022/01/19 15:27:08;;;;;;;;;;;-1.20;72.20;;;;;;4981121;28;19910;-90
2022/01/19 15:29:45;;;;;;;;;;;-1.20;72.30;;;;;;4976521;28;19914;-92
2022/01/19 15:32:21;;;;;;;;;;;-1.20;72.50;;;;;;4971681;28;20365;-91
2022/01/19 15:34:50;;;;;;;;;;;-1.30;72.70;;;;;;4971597;28;20233;-90
2022/01/19 15:37:21;;;;;;;;;;;-1.20;73.00;;;;;;4978246;28;19918;-91
2022/01/19 15:39:57;;;;;;;;;;;-1.30;73.00;;;;;;4976745;28;19914;-90
2022/01/19 15:42:30;;;;;;;;;;;-1.30;73.30;;;;;;4967919;28;19914;-89
2022/01/19 15:45:19;;;;;;;;;;;-1.30;73.70;;;;;;4978025;28;19938;-90
2022/01/19 15:47:57;;;;;;;;;;;;;;;;;;;;;
2022/01/19 15:50:40;;;;;;;;;;;-1.20;74.20;;;;;;4996302;28;19988;-91
2022/01/19 15:53:08;;;;;;;;;;;-1.20;74.50;;;;;;4966125;28;19997;-88
2022/01/19 15:56:18;;;;;;;;;;;-1.20;74.60;;;;;;4990074;28;19921;-92
2022/01/19 15:58:50;;;;;;;;;;;-1.10;74.80;;;;;;4911837;29;20240;-92
2022/01/19 16:04:56;;;;;;;;;;;-1.10;75.00;;;;;;4940234;29;19954;-94
2022/01/19 16:07:31;;;;;;;;;;;-1.10;75.20;;;;;;4926908;29;19910;-94
2022/01/19 16:10:01;;;;;;;;;;;-1.10;75.30;;;;;;4919562;29;19997;-88
2022/01/19 16:12:28;;;;;;;;;;;-1.00;75.50;;;;;;4904041;29;19923;-88
2022/01/19 16:15:08;;;;;;;;;;;;;;;;;;;;;
2022/01/19 16:17:48;;;;;;;;;;;-1.00;75.50;;;;;;4968577;28;19936;-88
2022/01/19 16:20:31;;;;;;;;;;;-0.90;75.90;;;;;;4971416;28;20356;-89
2022/01/19 16:28:32;;;;;;;;;;;-0.80;75.50;;;;;;4996319;28;19916;-89
2022/01/19 16:31:08;;;;;;;;;;;-0.70;75.30;;;;;;4978426;28;19953;-91
2022/01/19 16:33:38;;;;;;;;;;;-0.80;75.30;;;;;;4975529;28;20313;-88
2022/01/19 16:36:05;;;;;;;;;;;-0.80;75.60;;;;;;4972492;28;19959;-89
2022/01/19 16:38:50;;;;;;;;;;;-0.80;75.60;;;;;;4970740;28;19941;-88
2022/01/19 16:41:21;;;;;;;;;;;-0.80;75.70;;;;;;4966139;28;19936;-89
2022/01/19 16:43:49;;;;;;;;;;;-0.80;75.70;;;;;;4977106;28;19914;-89
2022/01/19 16:46:15;;;;;;;;;;;-0.80;75.90;;;;;;4958638;28;19918;-89